Time;durP1;ratioP1;P1;durP2;ratioP2;P2;SDS_P1;SDS_P2;PMS_P1;PMS_P2;Temp;Humidity;BMP_temperature;BMP_pressure;BME280_temperature;BME280_humidity;BME280_pressure;Samples;Min_cycle;Max_cycle;Signal;HPM_P1;HPM_P2
2022/07/21 00:00:26;;;;;;;12.23;10.98;;;25.90;1.00;;;;;;5093725;28;20039;-79
2022/07/21 00:02:52;;;;;;;12.40;11.10;;;25.90;1.00;;;;;;5091133;28;20024;-79
2022/07/21 00:05:17;;;;;;;13.10;11.23;;;25.90;1.00;;;;;;5091277;28;20557;-79
2022/07/21 00:07:43;;;;;;;12.95;11.70;;;25.80;1.00;;;;;;5091629;28;20073;-79
2022/07/21 00:10:10;;;;;;;11.68;10.63;;;25.70;1.00;;;;;;5091108;28;20107;-79
2022/07/21 00:12:36;;;;;;;13.45;11.27;;;25.90;1.00;;;;;;5093140;28;20028;-79
2022/07/21 00:15:03;;;;;;;12.15;10.95;;;25.90;1.00;;;;;;5090471;28;20157;-78
2022/07/21 00:17:29;;;;;;;13.20;11.63;;;25.80;1.00;;;;;;5090841;28;20388;-78
2022/07/21 00:19:55;;;;;;;12.73;11.48;;;25.80;1.00;;;;;;5091124;28;20042;-79
2022/07/21 00:22:20;;;;;;;12.98;11.23;;;25.90;1.00;;;;;;5091168;28;20108;-78
2022/07/21 00:24:46;;;;;;;12.23;11.02;;;25.80;1.00;;;;;;5091977;28;20159;-79
2022/07/21 00:27:12;;;;;;;11.70;10.60;;;25.70;1.00;;;;;;5090655;28;20035;-79
2022/07/21 00:29:37;;;;;;;13.10;11.85;;;25.80;1.00;;;;;;5090586;28;20060;-78
2022/07/21 00:32:05;;;;;;;12.10;11.02;;;25.70;1.00;;;;;;5090964;28;20476;-79
2022/07/21 00:34:31;;;;;;;11.75;10.52;;;25.70;1.00;;;;;;5090905;28;20024;-78
2022/07/21 00:36:57;;;;;;;12.43;11.25;;;25.80;1.00;;;;;;5090832;28;20028;-79
2022/07/21 00:39:23;;;;;;;12.95;11.60;;;25.70;1.00;;;;;;5092909;28;20069;-79
2022/07/21 00:41:49;;;;;;;12.18;10.98;;;25.70;1.00;;;;;;5090787;28;20549;-79
2022/07/21 00:44:26;;;;;;;12.02;10.82;;;25.50;1.00;;;;;;5090843;28;20043;-78
2022/07/21 00:46:52;;;;;;;11.45;10.35;;;25.50;1.00;;;;;;5090412;28;20047;-78
2022/07/21 00:49:19;;;;;;;11.10;10.10;;;25.60;1.00;;;;;;5089988;28;20520;-79
2022/07/21 00:51:45;;;;;;;11.82;10.68;;;25.70;1.00;;;;;;5091305;28;20028;-79
2022/07/21 00:54:12;;;;;;;11.95;10.68;;;25.70;1.00;;;;;;5092244;28;20499;-79
2022/07/21 00:56:38;;;;;;;11.95;10.60;;;25.70;1.00;;;;;;5090365;28;20028;-79
2022/07/21 00:59:03;;;;;;;11.00;9.90;;;25.70;1.00;;;;;;5089949;28;20043;-78
2022/07/21 01:01:29;;;;;;;11.63;10.50;;;25.60;1.00;;;;;;5089012;28;20484;-77
2022/07/21 01:03:55;;;;;;;11.95;10.60;;;25.60;1.00;;;;;;5090277;28;20044;-78
2022/07/21 01:06:23;;;;;;;11.30;10.20;;;25.60;1.00;;;;;;5091560;28;20036;-78
2022/07/21 01:08:50;;;;;;;11.02;9.93;;;25.60;1.00;;;;;;5090167;28;20024;-79
2022/07/21 01:11:16;;;;;;;10.63;9.63;;;25.60;1.00;;;;;;5090167;28;20162;-78
2022/07/21 01:13:43;;;;;;;12.65;10.55;;;25.60;1.00;;;;;;5072093;28;20059;-79
2022/07/21 01:16:09;;;;;;;11.50;10.38;;;25.60;1.00;;;;;;5090193;28;20012;-78
2022/07/21 01:18:35;;;;;;;11.77;10.73;;;25.60;1.00;;;;;;5091736;28;20028;-79
2022/07/21 01:21:06;;;;;;;11.73;10.40;;;25.60;1.00;;;;;;5089114;28;20028;-78
2022/07/21 01:23:32;;;;;;;11.93;10.65;;;25.70;1.00;;;;;;5088496;28;20106;-79
2022/07/21 01:25:58;;;;;;;10.98;9.88;;;25.70;1.00;;;;;;5088685;28;20047;-78
2022/07/21 01:28:23;;;;;;;11.38;10.30;;;25.70;1.00;;;;;;5089615;28;20495;-79
2022/07/21 01:30:50;;;;;;;11.63;10.48;;;25.60;1.00;;;;;;5090833;28;20032;-78
2022/07/21 01:33:16;;;;;;;11.27;10.15;;;25.60;1.00;;;;;;5090230;28;20016;-78
2022/07/21 01:35:42;;;;;;;13.32;10.93;;;25.60;1.00;;;;;;5089950;28;20052;-79
2022/07/21 01:41:28;;;;;;;13.02;11.35;;;25.50;1.00;;;;;;5089789;28;20055;-79
2022/07/21 01:43:44;;;;;;;12.40;10.85;;;25.30;1.00;;;;;;5089914;28;20043;-79
2022/07/21 01:46:13;;;;;;;12.45;10.82;;;25.40;1.00;;;;;;5089827;28;20499;-79
2022/07/21 01:48:43;;;;;;;12.55;11.23;;;25.40;1.00;;;;;;5091121;28;20024;-79
2022/07/21 01:51:09;;;;;;;11.75;10.55;;;25.30;1.00;;;;;;5091265;28;20027;-78
2022/07/21 01:53:35;;;;;;;11.88;10.68;;;25.10;1.00;;;;;;5089833;28;20032;-78
2022/07/21 01:56:00;;;;;;;13.95;11.38;;;25.00;1.00;;;;;;5089758;28;20024;-79
2022/07/21 01:58:26;;;;;;;11.85;10.70;;;24.90;1.00;;;;;;5089770;28;20028;-79
2022/07/21 02:00:52;;;;;;;13.30;11.45;;;24.90;1.00;;;;;;5092877;28;20077;-79
2022/07/21 02:03:17;;;;;;;14.35;11.23;;;24.70;1.00;;;;;;5095787;28;20024;-79
2022/07/21 02:05:43;;;;;;;12.40;11.10;;;24.70;1.00;;;;;;5093574;28;20043;-78
2022/07/21 02:08:08;;;;;;;12.80;11.15;;;24.70;1.00;;;;;;5093580;28;20020;-79
2022/07/21 02:10:35;;;;;;;13.30;12.00;;;24.60;1.00;;;;;;5092620;28;20494;-78
2022/07/21 02:13:02;;;;;;;12.50;11.18;;;24.50;1.00;;;;;;5077154;28;20025;-79
2022/07/21 02:15:28;;;;;;;13.43;12.00;;;24.50;1.00;;;;;;5095633;28;20024;-79
2022/07/21 02:17:54;;;;;;;16.33;11.93;;;24.40;1.00;;;;;;5093367;28;20032;-78
2022/07/21 02:20:19;;;;;;;12.63;11.32;;;24.40;1.00;;;;;;5093590;28;20043;-79
2022/07/21 02:22:47;;;;;;;13.20;11.80;;;24.30;1.00;;;;;;5092560;28;20020;-78
2022/07/21 02:25:13;;;;;;;13.63;12.23;;;24.30;1.00;;;;;;5093510;28;20048;-79
2022/07/21 02:27:39;;;;;;;13.35;12.07;;;24.20;1.00;;;;;;5094433;28;20024;-78
2022/07/21 02:30:05;;;;;;;12.95;11.65;;;24.10;1.00;;;;;;5089676;28;20508;-78
2022/07/21 02:32:31;;;;;;;13.48;11.73;;;24.20;1.00;;;;;;5088034;28;20028;-79
2022/07/21 02:34:57;;;;;;;13.57;12.18;;;24.20;1.00;;;;;;5093071;28;20031;-79
2022/07/21 02:37:22;;;;;;;13.30;11.98;;;24.10;1.00;;;;;;5093331;28;20036;-78
2022/07/21 02:39:49;;;;;;;12.75;11.55;;;24.20;1.00;;;;;;5093494;28;20052;-78
2022/07/21 02:42:15;;;;;;;14.13;11.82;;;24.30;1.00;;;;;;5094857;28;20511;-78
2022/07/21 02:44:41;;;;;;;13.00;11.65;;;24.20;1.00;;;;;;5092770;28;20042;-78
2022/07/21 02:47:06;;;;;;;12.98;11.60;;;24.10;1.00;;;;;;5092677;28;20020;-78
2022/07/21 02:49:32;;;;;;;13.75;11.80;;;24.20;1.00;;;;;;5091605;28;20081;-78
2022/07/21 02:51:58;;;;;;;13.32;11.40;;;24.20;1.00;;;;;;5093318;28;20024;-79
2022/07/21 02:54:24;;;;;;;13.43;11.90;;;24.20;1.00;;;;;;5095040;28;20028;-79
2022/07/21 02:56:49;;;;;;;13.25;11.95;;;24.30;1.00;;;;;;5092261;28;20028;-78
2022/07/21 02:59:16;;;;;;;12.75;11.45;;;24.20;1.00;;;;;;5092802;28;20031;-78
2022/07/21 03:01:41;;;;;;;14.35;11.32;;;24.20;1.00;;;;;;5092815;28;20016;-78
2022/07/21 03:04:07;;;;;;;12.93;11.65;;;24.10;1.00;;;;;;5092468;28;20554;-78
2022/07/21 03:06:33;;;;;;;13.35;11.95;;;24.10;1.00;;;;;;5076545;28;20032;-78
2022/07/21 03:08:59;;;;;;;12.75;11.52;;;23.80;1.00;;;;;;5092883;28;20119;-79
2022/07/21 03:11:25;;;;;;;13.43;11.55;;;23.60;1.00;;;;;;5091312;28;20093;-79
2022/07/21 03:13:51;;;;;;;13.50;12.02;;;23.70;1.00;;;;;;5092980;28;20031;-78
2022/07/21 03:16:16;;;;;;;13.13;11.77;;;23.70;1.00;;;;;;5092526;28;20017;-78
2022/07/21 03:18:42;;;;;;;12.95;11.73;;;23.80;1.00;;;;;;5075015;28;20438;-78
2022/07/21 03:21:08;;;;;;;13.02;11.77;;;23.80;1.00;;;;;;5093978;28;20024;-79
2022/07/21 03:23:34;;;;;;;13.30;11.80;;;23.80;1.00;;;;;;5092493;28;20036;-78
2022/07/21 03:25:59;;;;;;;13.73;12.35;;;23.80;1.00;;;;;;5073516;28;20039;-78
2022/07/21 03:28:25;;;;;;;12.85;11.30;;;23.70;1.00;;;;;;5072557;28;20040;-78
2022/07/21 03:30:51;;;;;;;13.70;12.30;;;23.70;1.00;;;;;;5092404;28;20076;-76
2022/07/21 03:33:16;;;;;;;13.20;11.90;;;23.70;1.00;;;;;;5094109;28;20054;-78
2022/07/21 03:35:42;;;;;;;13.90;12.50;;;23.70;1.00;;;;;;5091992;28;20059;-79
2022/07/21 03:38:08;;;;;;;13.27;11.98;;;23.70;1.00;;;;;;5091776;28;20036;-78
2022/07/21 03:40:36;;;;;;;15.27;12.75;;;23.60;1.00;;;;;;5090096;28;20012;-78
2022/07/21 03:43:03;;;;;;;14.70;12.40;;;23.50;1.00;;;;;;5076462;28;20488;-78
2022/07/21 03:45:30;;;;;;;13.68;12.32;;;23.40;1.00;;;;;;5089577;28;20081;-79
2022/07/21 03:47:57;;;;;;;13.50;12.10;;;23.30;1.00;;;;;;5091707;28;20052;-78
2022/07/21 03:50:23;;;;;;;13.85;12.38;;;23.30;1.00;;;;;;5091869;28;20024;-78
2022/07/21 03:52:49;;;;;;;13.63;12.10;;;23.30;1.00;;;;;;5091372;28;20020;-78
2022/07/21 03:55:17;;;;;;;14.40;12.65;;;23.30;1.00;;;;;;5091844;28;20492;-78
2022/07/21 03:57:49;;;;;;;15.50;13.05;;;23.30;1.00;;;;;;5092239;28;20028;-78
2022/07/21 04:00:25;;;;;;;13.65;12.35;;;23.30;1.00;;;;;;5091725;28;20089;-79
2022/07/21 04:02:51;;;;;;;13.82;12.43;;;23.20;1.00;;;;;;5091530;28;20472;-78
2022/07/21 04:05:18;;;;;;;16.75;12.48;;;23.10;1.00;;;;;;5091274;28;20085;-78
2022/07/21 04:07:46;;;;;;;13.75;12.45;;;23.30;1.00;;;;;;5089400;28;20028;-78
2022/07/21 04:10:15;;;;;;;13.90;12.52;;;23.10;1.00;;;;;;5090886;28;20040;-80
2022/07/21 04:12:41;;;;;;;14.75;13.23;;;23.10;1.00;;;;;;5092126;28;20051;-83
2022/07/21 04:15:09;;;;;;;13.50;12.10;;;23.10;1.00;;;;;;5092590;28;20063;-82
2022/07/21 04:17:35;;;;;;;13.52;12.23;;;23.10;1.00;;;;;;5090987;28;20034;-82
2022/07/21 04:20:01;;;;;;;13.73;12.30;;;23.10;1.00;;;;;;5090969;28;20028;-81
2022/07/21 04:22:27;;;;;;;13.70;12.02;;;23.00;1.00;;;;;;5090245;28;20020;-82
2022/07/21 04:24:52;;;;;;;14.98;12.50;;;23.10;1.00;;;;;;5090617;28;20447;-82
2022/07/21 04:27:18;;;;;;;14.13;12.73;;;23.10;1.00;;;;;;5092828;28;20099;-83
2022/07/21 04:29:44;;;;;;;14.38;12.88;;;23.10;1.00;;;;;;5090662;28;20073;-82
2022/07/21 04:32:09;;;;;;;14.73;12.65;;;23.20;1.00;;;;;;5091133;28;20057;-80
2022/07/21 04:34:35;;;;;;;14.88;13.43;;;23.20;1.00;;;;;;5090832;28;20069;-79
2022/07/21 04:37:00;;;;;;;14.45;12.23;;;23.20;1.00;;;;;;5090547;28;20082;-80
2022/07/21 04:39:27;;;;;;;13.57;12.27;;;23.00;1.00;;;;;;5075028;28;20032;-79
2022/07/21 04:41:53;;;;;;;14.32;12.15;;;23.20;1.00;;;;;;5090487;28;20028;-80
2022/07/21 04:44:18;;;;;;;31.27;13.43;;;23.30;1.00;;;;;;5090358;28;20427;-80
2022/07/21 04:46:44;;;;;;;13.40;12.07;;;23.30;1.00;;;;;;5088797;28;20032;-81
2022/07/21 04:49:10;;;;;;;13.23;11.90;;;23.30;1.00;;;;;;5090407;28;20016;-78
2022/07/21 04:51:35;;;;;;;14.93;12.18;;;23.30;1.00;;;;;;5091542;28;20024;-78
2022/07/21 04:54:01;;;;;;;14.25;12.65;;;23.20;1.00;;;;;;5091342;28;20045;-78
2022/07/21 04:56:27;;;;;;;13.68;12.10;;;23.10;1.00;;;;;;5090626;28;20038;-78
2022/07/21 04:58:52;;;;;;;13.60;12.30;;;23.10;1.00;;;;;;5089886;28;20111;-79
2022/07/21 05:01:18;;;;;;;14.68;12.88;;;23.20;1.00;;;;;;5090351;28;20032;-78
2022/07/21 05:03:44;;;;;;;13.90;12.07;;;23.30;1.00;;;;;;5090972;28;20030;-78
2022/07/21 05:06:10;;;;;;;13.55;12.18;;;23.20;1.00;;;;;;5091816;28;20476;-79
2022/07/21 05:08:35;;;;;;;13.98;12.48;;;23.20;1.00;;;;;;5089814;28;20050;-78
2022/07/21 05:11:01;;;;;;;13.57;12.27;;;23.30;1.00;;;;;;5086539;28;20051;-77
2022/07/21 05:13:27;;;;;;;16.58;12.88;;;23.40;1.00;;;;;;5090074;28;20026;-78
2022/07/21 05:15:52;;;;;;;13.73;12.32;;;23.30;1.00;;;;;;5090073;28;20044;-78
2022/07/21 05:18:18;;;;;;;17.10;13.02;;;23.40;1.00;;;;;;5092083;28;20091;-78
2022/07/21 05:20:43;;;;;;;13.68;12.27;;;23.40;1.00;;;;;;5089640;28;20568;-78
2022/07/21 05:23:09;;;;;;;15.75;12.27;;;23.40;1.00;;;;;;5090446;28;20035;-78
2022/07/21 05:25:35;;;;;;;14.23;12.70;;;23.50;1.00;;;;;;5088383;28;20039;-78
2022/07/21 05:28:01;;;;;;;14.85;12.38;;;23.50;1.00;;;;;;5089980;28;20047;-79
2022/07/21 05:30:27;;;;;;;16.52;12.57;;;23.50;1.00;;;;;;5092114;28;20040;-78
2022/07/21 05:32:52;;;;;;;19.00;12.63;;;23.50;1.00;;;;;;5089773;28;20568;-78
2022/07/21 05:35:18;;;;;;;20.85;13.30;;;23.50;1.00;;;;;;5089341;28;20040;-78
2022/07/21 05:37:45;;;;;;;14.48;12.98;;;23.40;1.00;;;;;;5090131;28;20026;-79
2022/07/21 05:40:11;;;;;;;14.90;12.88;;;23.40;1.00;;;;;;5089594;28;20078;-80
2022/07/21 05:42:37;;;;;;;16.27;12.23;;;23.40;1.00;;;;;;5091470;28;20028;-80
2022/07/21 05:45:04;;;;;;;15.13;12.95;;;23.50;1.00;;;;;;5090499;28;20220;-81
2022/07/21 05:47:31;;;;;;;16.02;13.52;;;23.50;1.00;;;;;;5089655;28;20052;-80
2022/07/21 05:49:57;;;;;;;16.52;13.13;;;23.60;1.00;;;;;;5089277;28;20032;-80
2022/07/21 05:52:23;;;;;;;18.45;12.57;;;23.50;1.00;;;;;;5090254;28;20115;-80
2022/07/21 05:54:48;;;;;;;13.73;12.35;;;23.60;1.00;;;;;;5089636;28;20123;-80
2022/07/21 05:57:14;;;;;;;19.48;12.90;;;23.70;1.00;;;;;;5091636;28;20035;-79
2022/07/21 05:59:40;;;;;;;16.60;13.05;;;23.70;1.00;;;;;;5089874;28;20028;-79
2022/07/21 06:02:06;;;;;;;14.45;12.00;;;23.70;1.00;;;;;;5089552;28;20555;-79
2022/07/21 06:04:32;;;;;;;13.18;11.77;;;23.50;1.00;;;;;;5087954;28;20042;-79
2022/07/21 06:06:57;;;;;;;12.68;11.38;;;23.40;1.00;;;;;;5089598;28;20024;-79
2022/07/21 06:09:23;;;;;;;12.88;11.45;;;23.50;1.00;;;;;;5091684;28;20040;-80
2022/07/21 06:11:49;;;;;;;12.40;11.10;;;23.50;1.00;;;;;;5089451;28;20085;-80
2022/07/21 06:14:14;;;;;;;13.02;11.30;;;23.60;1.00;;;;;;5089219;28;20028;-79
2022/07/21 06:16:40;;;;;;;13.35;11.20;;;23.70;1.00;;;;;;5089716;28;20459;-79
2022/07/21 06:19:09;;;;;;;11.57;10.48;;;23.40;1.00;;;;;;5089391;28;20060;-79
2022/07/21 06:21:35;;;;;;;11.57;10.40;;;23.50;1.00;;;;;;5090977;28;20043;-79
2022/07/21 06:24:01;;;;;;;11.55;10.35;;;23.70;1.00;;;;;;5088298;28;20444;-79
2022/07/21 06:26:27;;;;;;;11.93;10.10;;;23.70;1.00;;;;;;5089691;28;20033;-77
2022/07/21 06:28:53;;;;;;;13.52;9.65;;;23.80;1.00;;;;;;5088969;28;20097;-77
2022/07/21 06:31:18;;;;;;;10.68;9.55;;;23.40;1.00;;;;;;5089386;28;20024;-77
2022/07/21 06:33:44;;;;;;;11.27;9.40;;;23.50;1.00;;;;;;5089571;28;20024;-77
2022/07/21 06:36:09;;;;;;;11.90;9.43;;;23.80;1.00;;;;;;5091266;28;20384;-77
2022/07/21 06:38:35;;;;;;;11.07;9.15;;;23.70;1.00;;;;;;5089108;28;20028;-77
2022/07/21 06:41:01;;;;;;;11.18;9.23;;;24.10;1.00;;;;;;5089159;28;20081;-77
2022/07/21 06:43:26;;;;;;;9.93;8.90;;;24.10;1.00;;;;;;5087877;28;20090;-77
2022/07/21 06:45:52;;;;;;;10.23;8.75;;;24.00;1.00;;;;;;5089152;28;20044;-77
2022/07/21 06:48:18;;;;;;;11.57;8.45;;;23.90;1.00;;;;;;5094374;28;20024;-78
2022/07/21 06:50:44;;;;;;;10.02;8.10;;;23.90;1.00;;;;;;5092772;28;20074;-77
2022/07/21 06:53:10;;;;;;;8.70;7.80;;;24.00;1.00;;;;;;5092897;28;20107;-78
2022/07/21 06:55:35;;;;;;;9.18;8.15;;;24.10;1.00;;;;;;5092327;28;20426;-77
2022/07/21 06:58:11;;;;;;;9.00;8.10;;;24.30;1.00;;;;;;5092709;28;20029;-77
2022/07/21 07:00:37;;;;;;;10.07;8.07;;;24.20;1.00;;;;;;5091244;28;20107;-77
2022/07/21 07:03:03;;;;;;;10.20;8.10;;;24.30;1.00;;;;;;5074503;28;20160;-77
2022/07/21 07:05:30;;;;;;;8.85;7.25;;;24.40;1.00;;;;;;5092392;28;20059;-77
2022/07/21 07:07:56;;;;;;;10.35;7.60;;;24.30;1.00;;;;;;5092364;28;20407;-77
2022/07/21 07:10:22;;;;;;;8.02;7.22;;;24.40;1.00;;;;;;5092665;28;20393;-77
2022/07/21 07:12:48;;;;;;;8.48;7.13;;;24.40;1.00;;;;;;5092373;28;20035;-77
2022/07/21 07:15:13;;;;;;;8.55;7.15;;;24.40;1.00;;;;;;5076280;28;20032;-78
2022/07/21 07:17:39;;;;;;;8.18;7.25;;;24.40;1.00;;;;;;5092285;28;20064;-77
2022/07/21 07:20:07;;;;;;;8.02;6.63;;;24.50;1.00;;;;;;5092083;28;20028;-77
2022/07/21 07:22:33;;;;;;;8.60;6.70;;;24.70;1.00;;;;;;5090728;28;20453;-77
2022/07/21 07:24:59;;;;;;;7.28;6.57;;;24.70;1.00;;;;;;5092138;28;20032;-77
2022/07/21 07:27:24;;;;;;;10.90;7.13;;;24.80;1.00;;;;;;5094536;28;20491;-77
2022/07/21 07:29:50;;;;;;;9.32;6.80;;;24.90;1.00;;;;;;5091748;28;20557;-77
2022/07/21 07:32:16;;;;;;;6.82;6.18;;;24.80;1.00;;;;;;5091448;28;20047;-77
2022/07/21 07:34:41;;;;;;;9.50;6.43;;;24.90;1.00;;;;;;5092208;28;20020;-78
2022/07/21 07:37:07;;;;;;;6.45;5.80;;;24.90;1.00;;;;;;5091709;28;20514;-77
2022/07/21 07:39:33;;;;;;;8.38;6.30;;;25.00;1.00;;;;;;5093994;28;20028;-76
2022/07/21 07:41:58;;;;;;;6.53;5.47;;;25.10;1.00;;;;;;5092105;28;20020;-77
2022/07/21 07:44:24;;;;;;;6.93;6.10;;;25.20;1.00;;;;;;5091645;28;20035;-77
2022/07/21 07:46:50;;;;;;;10.18;5.65;;;25.40;1.00;;;;;;5091953;28;20032;-77
2022/07/21 07:49:16;;;;;;;8.88;6.10;;;25.30;1.00;;;;;;5092319;28;20070;-77
2022/07/21 07:51:42;;;;;;;6.80;5.55;;;25.40;1.00;;;;;;5092489;28;20435;-78
2022/07/21 07:54:08;;;;;;;8.85;5.28;;;25.50;1.00;;;;;;5092963;28;20070;-77
2022/07/21 07:56:33;;;;;;;7.68;6.03;;;25.60;1.00;;;;;;5091929;28;20116;-78
2022/07/21 07:58:59;;;;;;;9.25;5.43;;;25.70;1.00;;;;;;5091140;28;20514;-77
2022/07/21 08:01:25;;;;;;;7.20;5.38;;;25.80;1.00;;;;;;5089789;28;20097;-77
2022/07/21 08:03:51;;;;;;;6.30;5.40;;;25.60;1.00;;;;;;5091402;28;20034;-77
2022/07/21 08:06:17;;;;;;;6.65;5.50;;;25.60;1.00;;;;;;5093362;28;20050;-77
2022/07/21 08:08:42;;;;;;;7.28;5.60;;;25.70;1.00;;;;;;5091206;28;20055;-77
2022/07/21 08:11:09;;;;;;;8.23;5.82;;;25.60;1.00;;;;;;5091566;28;20024;-78
2022/07/21 08:13:35;;;;;;;6.65;5.80;;;25.70;1.00;;;;;;5091328;28;20445;-77
2022/07/21 08:16:01;;;;;;;6.22;5.20;;;25.70;1.00;;;;;;5074837;28;20052;-77
2022/07/21 08:18:27;;;;;;;5.65;4.95;;;25.80;1.00;;;;;;5093671;28;20024;-78
2022/07/21 08:20:53;;;;;;;9.07;5.88;;;25.80;1.00;;;;;;5090949;28;20399;-77
2022/07/21 08:23:18;;;;;;;6.55;5.47;;;25.90;1.00;;;;;;5090918;28;20103;-77
2022/07/21 08:25:44;;;;;;;7.50;5.45;;;26.10;1.00;;;;;;5090886;28;20139;-77
2022/07/21 08:28:10;;;;;;;6.60;5.38;;;26.10;1.00;;;;;;5091028;28;20032;-78
2022/07/21 08:30:36;;;;;;;6.13;5.53;;;26.30;1.00;;;;;;5092095;28;20035;-78
2022/07/21 08:33:03;;;;;;;6.20;5.45;;;26.40;1.00;;;;;;5091708;28;20028;-77
2022/07/21 08:35:29;;;;;;;5.88;4.93;;;26.60;1.00;;;;;;5090504;28;20031;-77
2022/07/21 08:38:04;;;;;;;7.07;4.75;;;26.60;1.00;;;;;;5090947;28;20247;-78
2022/07/21 08:40:32;;;;;;;5.82;4.47;;;26.30;1.00;;;;;;5089490;28;20538;-77
2022/07/21 08:42:59;;;;;;;7.78;4.97;;;26.20;1.00;;;;;;5090357;28;20024;-78
2022/07/21 08:45:25;;;;;;;6.95;4.80;;;26.30;1.00;;;;;;5092673;28;20047;-77
2022/07/21 08:47:52;;;;;;;7.45;5.28;;;26.30;1.00;;;;;;5090674;28;20128;-77
2022/07/21 08:50:19;;;;;;;7.43;4.85;;;26.40;1.00;;;;;;5090276;28;20016;-78
2022/07/21 08:52:44;;;;;;;5.18;4.43;;;26.40;1.00;;;;;;5090048;28;20031;-78
2022/07/21 08:55:11;;;;;;;7.20;4.60;;;26.40;1.00;;;;;;5090657;28;20023;-77
2022/07/21 08:57:40;;;;;;;6.95;4.63;;;26.50;1.00;;;;;;5091711;28;20028;-78
2022/07/21 09:00:08;;;;;;;5.93;4.32;;;26.60;1.00;;;;;;5091637;28;20020;-77
2022/07/21 09:02:35;;;;;;;7.97;4.55;;;26.70;1.00;;;;;;5090244;28;20097;-77
2022/07/21 09:05:02;;;;;;;4.47;4.00;;;26.60;1.00;;;;;;5090223;28;20028;-77
2022/07/21 09:07:28;;;;;;;4.38;3.97;;;26.60;1.00;;;;;;5090257;28;20021;-77
2022/07/21 09:09:59;;;;;;;4.95;3.92;;;26.70;1.00;;;;;;5089882;28;20033;-77
2022/07/21 09:12:26;;;;;;;4.85;3.78;;;26.70;1.00;;;;;;5073701;28;20030;-77
2022/07/21 09:14:51;;;;;;;4.93;3.78;;;26.90;1.00;;;;;;5090403;28;20392;-77
2022/07/21 09:17:18;;;;;;;4.95;3.80;;;26.80;1.00;;;;;;5090001;28;20024;-77
2022/07/21 09:19:47;;;;;;;4.88;3.90;;;26.90;1.00;;;;;;5088590;28;20031;-77
2022/07/21 09:22:18;;;;;;;5.45;4.20;;;27.20;1.00;;;;;;5090022;28;20046;-77
2022/07/21 09:24:52;;;;;;;5.00;3.78;;;27.50;1.00;;;;;;5090603;28;20059;-77
2022/07/21 09:27:22;;;;;;;6.88;4.32;;;27.40;1.00;;;;;;5090234;28;20071;-78
2022/07/21 09:29:56;;;;;;;4.70;3.75;;;27.40;1.00;;;;;;5089693;28;20047;-77
2022/07/21 09:32:37;;;;;;;6.07;3.72;;;27.50;1.00;;;;;;5089696;28;20039;-77
2022/07/21 09:35:04;;;;;;;5.40;3.65;;;27.40;1.00;;;;;;5089638;28;20070;-77
2022/07/21 09:37:32;;;;;;;6.15;3.72;;;27.40;1.00;;;;;;5089803;28;20028;-77
2022/07/21 09:40:00;;;;;;;5.15;3.90;;;27.40;1.00;;;;;;5089762;28;20115;-77
2022/07/21 09:42:33;;;;;;;4.10;3.75;;;27.50;1.00;;;;;;5091671;28;20051;-77
2022/07/21 09:45:11;;;;;;;5.68;4.15;;;27.60;1.00;;;;;;5088407;28;20503;-77
2022/07/21 09:47:38;;;;;;;5.53;3.85;;;27.80;1.00;;;;;;5089545;28;20115;-77
2022/07/21 09:50:06;;;;;;;9.20;4.13;;;28.00;1.00;;;;;;5089489;28;20514;-77
2022/07/21 09:52:36;;;;;;;5.82;3.88;;;27.90;1.00;;;;;;5089766;28;20035;-77
2022/07/21 09:55:07;;;;;;;6.38;3.78;;;27.60;1.00;;;;;;5073794;28;20028;-77
2022/07/21 09:57:34;;;;;;;6.82;3.47;;;27.80;1.00;;;;;;5087739;28;20554;-77
2022/07/21 10:00:04;;;;;;;5.22;3.30;;;28.00;1.00;;;;;;5090306;28;20043;-78
2022/07/21 10:02:31;;;;;;;4.05;3.22;;;28.20;1.00;;;;;;5089354;28;20024;-77
2022/07/21 10:05:03;;;;;;;4.85;3.42;;;28.10;1.00;;;;;;5089483;28;20530;-77
2022/07/21 10:07:30;;;;;;;4.03;3.58;;;28.10;1.00;;;;;;5090010;28;20031;-76
2022/07/21 10:09:57;;;;;;;5.03;3.38;;;28.30;1.00;;;;;;5089110;28;20514;-77
2022/07/21 10:12:23;;;;;;;7.03;3.63;;;28.30;1.00;;;;;;5091629;28;20031;-77
2022/07/21 10:14:49;;;;;;;6.00;3.85;;;28.30;1.00;;;;;;5089216;28;20035;-78
2022/07/21 10:17:19;;;;;;;4.18;3.42;;;28.60;1.00;;;;;;5089620;28;20035;-77
2022/07/21 10:20:12;;;;;;;4.82;3.20;;;28.80;1.00;;;;;;5089391;28;20028;-78
2022/07/21 10:22:44;;;;;;;4.70;3.17;;;28.50;1.00;;;;;;5085488;28;20403;-77
2022/07/21 10:25:10;;;;;;;3.80;3.00;;;28.70;1.00;;;;;;5093033;28;20491;-78
2022/07/21 10:27:35;;;;;;;5.45;3.17;;;28.70;1.00;;;;;;5094716;28;20028;-78
2022/07/21 10:30:04;;;;;;;4.00;3.60;;;29.00;1.00;;;;;;5092168;28;20052;-77
2022/07/21 10:32:47;;;;;;;3.75;3.35;;;28.80;1.00;;;;;;5093046;28;20035;-77
2022/07/21 10:35:44;;;;;;;3.60;3.05;;;28.90;1.00;;;;;;5093387;28;20024;-77
2022/07/21 10:38:28;;;;;;;5.03;3.42;;;29.00;1.00;;;;;;5075212;28;20484;-77
2022/07/21 10:40:54;;;;;;;3.40;3.08;;;29.00;1.00;;;;;;5092582;28;20107;-77
2022/07/21 10:43:26;;;;;;;3.60;3.28;;;28.90;1.00;;;;;;5093156;28;20039;-77
2022/07/21 10:45:53;;;;;;;4.03;3.63;;;28.80;1.00;;;;;;5093707;28;20032;-77
2022/07/21 10:48:37;;;;;;;4.10;3.28;;;28.80;1.00;;;;;;5095227;28;20042;-77
2022/07/21 10:51:06;;;;;;;5.07;3.45;;;28.80;1.00;;;;;;5092138;28;20043;-77
2022/07/21 10:53:32;;;;;;;5.55;3.13;;;29.10;1.00;;;;;;5092442;28;20123;-77
2022/07/21 10:55:57;;;;;;;6.40;3.63;;;29.20;1.00;;;;;;5093067;28;20662;-77
2022/07/21 10:58:23;;;;;;;4.07;3.40;;;29.30;1.00;;;;;;5092671;28;20042;-77
2022/07/21 11:00:56;;;;;;;3.92;2.88;;;29.10;1.00;;;;;;5092472;28;20020;-78
2022/07/21 11:03:34;;;;;;;4.30;3.65;;;29.00;1.00;;;;;;5094727;28;20032;-78
2022/07/21 11:06:05;;;;;;;3.83;3.40;;;29.20;1.00;;;;;;5093448;28;20043;-77
2022/07/21 11:08:50;;;;;;;3.95;3.20;;;29.50;1.00;;;;;;5092102;28;20020;-77
2022/07/21 11:11:17;;;;;;;4.18;3.72;;;29.60;1.00;;;;;;5092459;28;20035;-77
2022/07/21 11:14:00;;;;;;;5.38;3.75;;;29.70;1.00;;;;;;5092194;28;20039;-77
2022/07/21 11:16:46;;;;;;;5.82;4.05;;;29.70;1.00;;;;;;5090866;28;20024;-78
2022/07/21 11:19:41;;;;;;;4.05;3.25;;;29.90;1.00;;;;;;5078060;28;20047;-77
2022/07/21 11:22:25;;;;;;;6.07;3.58;;;30.20;1.00;;;;;;5077293;28;20021;-78
2022/07/21 11:24:58;;;;;;;4.18;3.35;;;29.90;1.00;;;;;;5092093;28;20116;-77
2022/07/21 11:27:28;;;;;;;4.88;3.75;;;29.90;1.00;;;;;;5094181;28;20043;-77
2022/07/21 11:29:56;;;;;;;6.05;3.83;;;29.90;1.00;;;;;;5091886;28;20393;-77
2022/07/21 11:32:23;;;;;;;4.28;3.88;;;30.10;1.00;;;;;;5091400;28;20194;-77
2022/07/21 11:34:53;;;;;;;4.15;3.60;;;30.40;1.00;;;;;;5092116;28;20028;-78
2022/07/21 11:37:35;;;;;;;4.15;3.75;;;30.80;1.00;;;;;;5091599;28;20021;-78
2022/07/21 11:40:02;;;;;;;4.20;3.90;;;31.20;1.00;;;;;;5091979;28;20050;-77
2022/07/21 11:42:30;;;;;;;4.88;3.92;;;31.40;1.00;;;;;;5093906;28;20028;-77
2022/07/21 11:44:56;;;;;;;4.40;3.80;;;31.90;1.00;;;;;;5091975;28;20043;-78
2022/07/21 11:47:25;;;;;;;5.13;4.07;;;32.80;1.00;;;;;;5091275;28;20024;-77
2022/07/21 11:49:53;;;;;;;4.10;3.70;;;34.50;1.00;;;;;;5091690;28;20028;-77
2022/07/21 11:52:24;;;;;;;5.78;4.28;;;36.60;1.00;;;;;;5091418;28;20032;-78
2022/07/21 11:54:51;;;;;;;6.35;3.90;;;38.10;1.00;;;;;;5092270;28;20024;-78
2022/07/21 11:57:20;;;;;;;4.78;4.25;;;39.00;1.00;;;;;;5092202;28;20044;-78
2022/07/21 11:59:47;;;;;;;4.35;3.95;;;39.60;1.00;;;;;;5091257;28;20035;-78
2022/07/21 12:02:17;;;;;;;4.60;4.18;;;40.60;1.00;;;;;;5091652;28;20035;-78
2022/07/21 12:04:50;;;;;;;5.13;4.40;;;41.70;1.00;;;;;;5091955;28;20032;-78
2022/07/21 12:07:29;;;;;;;5.07;4.32;;;41.50;1.00;;;;;;5091257;28;20039;-78
2022/07/21 12:10:00;;;;;;;5.38;4.18;;;41.30;1.00;;;;;;5091069;28;20055;-78
2022/07/21 12:12:32;;;;;;;4.63;4.22;;;41.80;1.00;;;;;;5093689;28;20028;-78
2022/07/21 12:15:09;;;;;;;4.38;3.97;;;40.10;1.00;;;;;;5091152;28;20149;-75
2022/07/21 12:17:53;;;;;;;5.07;4.50;;;40.30;1.00;;;;;;5090947;28;20028;-75
2022/07/21 12:20:30;;;;;;;4.63;4.13;;;40.80;1.00;;;;;;5090706;28;20093;-79
2022/07/21 12:23:00;;;;;;;4.65;4.03;;;42.70;1.00;;;;;;5090861;28;20031;-76
2022/07/21 12:25:38;;;;;;;4.55;4.05;;;42.30;1.00;;;;;;5090868;28;20032;-78
2022/07/21 12:28:06;;;;;;;4.78;4.20;;;41.70;1.00;;;;;;5075689;28;20477;-77
2022/07/21 12:30:44;;;;;;;4.60;4.20;;;42.70;1.00;;;;;;5089578;28;20052;-78
2022/07/21 12:33:12;;;;;;;5.25;4.75;;;43.30;1.00;;;;;;5092358;28;20027;-78
2022/07/21 12:35:42;;;;;;;4.53;4.07;;;43.30;1.00;;;;;;5089414;28;20153;-79
2022/07/21 12:38:15;;;;;;;4.80;4.40;;;43.10;1.00;;;;;;5090735;28;20044;-78
2022/07/21 12:40:47;;;;;;;4.93;4.13;;;42.90;1.00;;;;;;5090655;28;20032;-76
2022/07/21 12:43:25;;;;;;;4.70;4.30;;;43.80;1.00;;;;;;5090799;28;20032;-76
2022/07/21 12:45:52;;;;;;;5.63;4.32;;;44.40;1.00;;;;;;5090512;28;20032;-77
2022/07/21 12:48:24;;;;;;;4.85;4.38;;;43.40;1.00;;;;;;5091024;28;20016;-79
2022/07/21 12:51:17;;;;;;;7.05;4.30;;;43.50;1.00;;;;;;5090093;28;20028;-79